sensor_id;sensor_type;location;lat;lon;timestamp;P1;durP1;ratioP1;P2;durP2;ratioP2
12687;SDS011;6408;59.388;17.798;2022-12-20T00:00:07;12.67;;;8.63;;
12687;SDS011;6408;59.388;17.798;2022-12-20T00:02:35;11.83;;;7.87;;
12687;SDS011;6408;59.388;17.798;2022-12-20T00:05:02;10.87;;;7.53;;
12687;SDS011;6408;59.388;17.798;2022-12-20T00:07:31;12.90;;;7.53;;
12687;SDS011;6408;59.388;17.798;2022-12-20T00:09:58;11.10;;;7.73;;
12687;SDS011;6408;59.388;17.798;2022-12-20T00:12:26;11.53;;;7.73;;
12687;SDS011;6408;59.388;17.798;2022-12-20T00:14:53;11.13;;;6.63;;
12687;SDS011;6408;59.388;17.798;2022-12-20T00:17:22;14.03;;;8.07;;
12687;SDS011;6408;59.388;17.798;2022-12-20T00:19:50;13.87;;;8.30;;
12687;SDS011;6408;59.388;17.798;2022-12-20T00:22:17;11.60;;;7.97;;
12687;SDS011;6408;59.388;17.798;2022-12-20T00:24:44;11.63;;;7.73;;
12687;SDS011;6408;59.388;17.798;2022-12-20T00:27:12;12.10;;;8.47;;
12687;SDS011;6408;59.388;17.798;2022-12-20T00:29:39;13.27;;;8.30;;
12687;SDS011;6408;59.388;17.798;2022-12-20T00:32:06;11.30;;;8.33;;
12687;SDS011;6408;59.388;17.798;2022-12-20T00:34:35;13.47;;;8.73;;
12687;SDS011;6408;59.388;17.798;2022-12-20T00:37:02;12.37;;;8.40;;
12687;SDS011;6408;59.388;17.798;2022-12-20T00:39:30;12.57;;;8.33;;
12687;SDS011;6408;59.388;17.798;2022-12-20T00:41:58;12.30;;;8.37;;
12687;SDS011;6408;59.388;17.798;2022-12-20T00:44:25;15.63;;;9.57;;
12687;SDS011;6408;59.388;17.798;2022-12-20T00:46:53;12.63;;;9.23;;
12687;SDS011;6408;59.388;17.798;2022-12-20T00:49:20;13.57;;;8.80;;
12687;SDS011;6408;59.388;17.798;2022-12-20T00:51:50;12.07;;;8.70;;
12687;SDS011;6408;59.388;17.798;2022-12-20T00:54:17;15.47;;;9.87;;
12687;SDS011;6408;59.388;17.798;2022-12-20T00:56:44;14.90;;;10.00;;
12687;SDS011;6408;59.388;17.798;2022-12-20T00:59:11;12.60;;;8.60;;
12687;SDS011;6408;59.388;17.798;2022-12-20T01:01:39;11.80;;;8.73;;
12687;SDS011;6408;59.388;17.798;2022-12-20T01:04:06;14.67;;;9.37;;
12687;SDS011;6408;59.388;17.798;2022-12-20T01:06:33;11.87;;;8.47;;
12687;SDS011;6408;59.388;17.798;2022-12-20T01:09:04;12.30;;;8.63;;
12687;SDS011;6408;59.388;17.798;2022-12-20T01:11:33;10.17;;;8.03;;
12687;SDS011;6408;59.388;17.798;2022-12-20T01:14:02;15.60;;;9.07;;
12687;SDS011;6408;59.388;17.798;2022-12-20T01:16:32;14.47;;;9.27;;
12687;SDS011;6408;59.388;17.798;2022-12-20T01:19:01;14.73;;;9.33;;
12687;SDS011;6408;59.388;17.798;2022-12-20T01:21:30;15.07;;;9.50;;
12687;SDS011;6408;59.388;17.798;2022-12-20T01:23:57;14.37;;;9.67;;
12687;SDS011;6408;59.388;17.798;2022-12-20T01:26:27;15.90;;;10.10;;
12687;SDS011;6408;59.388;17.798;2022-12-20T01:28:55;15.17;;;9.07;;
12687;SDS011;6408;59.388;17.798;2022-12-20T01:31:24;13.73;;;9.83;;
12687;SDS011;6408;59.388;17.798;2022-12-20T01:33:52;15.90;;;9.87;;
12687;SDS011;6408;59.388;17.798;2022-12-20T01:36:21;16.27;;;10.67;;
12687;SDS011;6408;59.388;17.798;2022-12-20T01:38:54;19.17;;;10.47;;
12687;SDS011;6408;59.388;17.798;2022-12-20T01:41:22;15.17;;;10.30;;
12687;SDS011;6408;59.388;17.798;2022-12-20T01:43:52;17.17;;;10.37;;
12687;SDS011;6408;59.388;17.798;2022-12-20T01:46:21;16.43;;;11.20;;
12687;SDS011;6408;59.388;17.798;2022-12-20T01:48:51;16.20;;;11.10;;
12687;SDS011;6408;59.388;17.798;2022-12-20T01:51:21;14.57;;;10.07;;
12687;SDS011;6408;59.388;17.798;2022-12-20T01:53:51;18.60;;;11.03;;
12687;SDS011;6408;59.388;17.798;2022-12-20T01:56:21;17.50;;;10.57;;
12687;SDS011;6408;59.388;17.798;2022-12-20T01:58:49;16.23;;;10.23;;
12687;SDS011;6408;59.388;17.798;2022-12-20T02:01:19;16.87;;;10.83;;
12687;SDS011;6408;59.388;17.798;2022-12-20T02:03:48;15.60;;;10.50;;
12687;SDS011;6408;59.388;17.798;2022-12-20T02:06:19;20.60;;;11.90;;
12687;SDS011;6408;59.388;17.798;2022-12-20T02:08:48;17.90;;;11.07;;
12687;SDS011;6408;59.388;17.798;2022-12-20T02:11:27;20.00;;;12.17;;
12687;SDS011;6408;59.388;17.798;2022-12-20T02:14:21;17.80;;;11.17;;
12687;SDS011;6408;59.388;17.798;2022-12-20T02:17:04;18.47;;;10.63;;
12687;SDS011;6408;59.388;17.798;2022-12-20T02:19:53;16.43;;;10.47;;
12687;SDS011;6408;59.388;17.798;2022-12-20T02:22:45;15.70;;;10.53;;
12687;SDS011;6408;59.388;17.798;2022-12-20T02:25:36;16.97;;;10.60;;
12687;SDS011;6408;59.388;17.798;2022-12-20T02:28:14;16.70;;;10.60;;
12687;SDS011;6408;59.388;17.798;2022-12-20T02:31:03;16.10;;;10.63;;
12687;SDS011;6408;59.388;17.798;2022-12-20T02:33:36;16.60;;;10.00;;
12687;SDS011;6408;59.388;17.798;2022-12-20T02:36:05;17.33;;;9.87;;
12687;SDS011;6408;59.388;17.798;2022-12-20T02:38:34;14.93;;;10.13;;
12687;SDS011;6408;59.388;17.798;2022-12-20T02:41:03;14.23;;;10.10;;
12687;SDS011;6408;59.388;17.798;2022-12-20T02:43:35;15.63;;;10.53;;
12687;SDS011;6408;59.388;17.798;2022-12-20T02:46:26;17.90;;;11.27;;
12687;SDS011;6408;59.388;17.798;2022-12-20T02:48:54;19.57;;;10.67;;
12687;SDS011;6408;59.388;17.798;2022-12-20T02:51:26;16.60;;;10.40;;
12687;SDS011;6408;59.388;17.798;2022-12-20T02:53:54;16.80;;;10.53;;
12687;SDS011;6408;59.388;17.798;2022-12-20T02:56:26;15.63;;;10.27;;
12687;SDS011;6408;59.388;17.798;2022-12-20T02:58:57;17.07;;;10.77;;
12687;SDS011;6408;59.388;17.798;2022-12-20T03:01:33;17.60;;;11.40;;
12687;SDS011;6408;59.388;17.798;2022-12-20T03:04:04;18.17;;;11.13;;
12687;SDS011;6408;59.388;17.798;2022-12-20T03:06:33;19.57;;;10.97;;
12687;SDS011;6408;59.388;17.798;2022-12-20T03:09:00;18.00;;;10.93;;
12687;SDS011;6408;59.388;17.798;2022-12-20T03:11:27;18.67;;;11.20;;
12687;SDS011;6408;59.388;17.798;2022-12-20T03:13:55;18.50;;;11.17;;
12687;SDS011;6408;59.388;17.798;2022-12-20T03:16:22;16.57;;;10.87;;
12687;SDS011;6408;59.388;17.798;2022-12-20T03:18:51;17.23;;;10.93;;
12687;SDS011;6408;59.388;17.798;2022-12-20T03:21:19;18.13;;;11.67;;
12687;SDS011;6408;59.388;17.798;2022-12-20T03:23:46;17.47;;;11.30;;
12687;SDS011;6408;59.388;17.798;2022-12-20T03:26:14;16.53;;;10.43;;
12687;SDS011;6408;59.388;17.798;2022-12-20T03:28:42;20.23;;;11.73;;
12687;SDS011;6408;59.388;17.798;2022-12-20T03:31:09;18.17;;;10.20;;
12687;SDS011;6408;59.388;17.798;2022-12-20T03:33:36;18.00;;;10.97;;
12687;SDS011;6408;59.388;17.798;2022-12-20T03:36:05;17.57;;;10.57;;
12687;SDS011;6408;59.388;17.798;2022-12-20T03:38:32;20.60;;;11.60;;
12687;SDS011;6408;59.388;17.798;2022-12-20T03:40:59;19.13;;;10.97;;
12687;SDS011;6408;59.388;17.798;2022-12-20T03:43:26;19.37;;;11.43;;
12687;SDS011;6408;59.388;17.798;2022-12-20T03:45:54;17.60;;;11.20;;
12687;SDS011;6408;59.388;17.798;2022-12-20T03:48:21;19.87;;;11.57;;
12687;SDS011;6408;59.388;17.798;2022-12-20T03:50:48;18.93;;;11.63;;
12687;SDS011;6408;59.388;17.798;2022-12-20T03:53:17;17.93;;;11.10;;
12687;SDS011;6408;59.388;17.798;2022-12-20T03:55:44;18.27;;;11.57;;
12687;SDS011;6408;59.388;17.798;2022-12-20T03:58:11;18.70;;;10.63;;
12687;SDS011;6408;59.388;17.798;2022-12-20T04:00:39;15.13;;;10.77;;
12687;SDS011;6408;59.388;17.798;2022-12-20T04:03:06;20.03;;;11.43;;
12687;SDS011;6408;59.388;17.798;2022-12-20T04:05:33;17.80;;;10.60;;
12687;SDS011;6408;59.388;17.798;2022-12-20T04:08:01;18.00;;;10.67;;
12687;SDS011;6408;59.388;17.798;2022-12-20T04:10:30;19.27;;;10.47;;
12687;SDS011;6408;59.388;17.798;2022-12-20T04:12:57;16.57;;;10.73;;
12687;SDS011;6408;59.388;17.798;2022-12-20T04:15:24;15.57;;;10.60;;
12687;SDS011;6408;59.388;17.798;2022-12-20T04:17:51;15.40;;;9.90;;
12687;SDS011;6408;59.388;17.798;2022-12-20T04:20:18;15.67;;;9.67;;
12687;SDS011;6408;59.388;17.798;2022-12-20T04:22:45;17.43;;;10.23;;
12687;SDS011;6408;59.388;17.798;2022-12-20T04:25:14;15.17;;;9.67;;
12687;SDS011;6408;59.388;17.798;2022-12-20T04:27:44;16.57;;;10.13;;
12687;SDS011;6408;59.388;17.798;2022-12-20T04:30:11;14.57;;;9.97;;
12687;SDS011;6408;59.388;17.798;2022-12-20T04:32:39;17.33;;;9.63;;
12687;SDS011;6408;59.388;17.798;2022-12-20T04:35:06;13.10;;;9.37;;
12687;SDS011;6408;59.388;17.798;2022-12-20T04:37:34;17.90;;;9.97;;
12687;SDS011;6408;59.388;17.798;2022-12-20T04:40:01;17.30;;;10.43;;
12687;SDS011;6408;59.388;17.798;2022-12-20T04:42:29;15.93;;;9.77;;
12687;SDS011;6408;59.388;17.798;2022-12-20T04:44:58;16.30;;;10.20;;
12687;SDS011;6408;59.388;17.798;2022-12-20T04:47:25;16.47;;;10.07;;
12687;SDS011;6408;59.388;17.798;2022-12-20T04:49:52;15.93;;;10.10;;
12687;SDS011;6408;59.388;17.798;2022-12-20T04:52:19;15.33;;;10.47;;
12687;SDS011;6408;59.388;17.798;2022-12-20T04:55:04;16.10;;;10.03;;
12687;SDS011;6408;59.388;17.798;2022-12-20T04:57:32;14.63;;;9.60;;
12687;SDS011;6408;59.388;17.798;2022-12-20T05:00:01;16.70;;;9.27;;
12687;SDS011;6408;59.388;17.798;2022-12-20T05:02:29;14.03;;;8.87;;
12687;SDS011;6408;59.388;17.798;2022-12-20T05:04:56;14.23;;;8.30;;
12687;SDS011;6408;59.388;17.798;2022-12-20T05:07:23;13.43;;;8.67;;
12687;SDS011;6408;59.388;17.798;2022-12-20T05:09:50;14.17;;;8.90;;
12687;SDS011;6408;59.388;17.798;2022-12-20T05:12:18;13.53;;;8.27;;
12687;SDS011;6408;59.388;17.798;2022-12-20T05:14:45;13.53;;;8.33;;
12687;SDS011;6408;59.388;17.798;2022-12-20T05:17:14;12.47;;;7.53;;
12687;SDS011;6408;59.388;17.798;2022-12-20T05:19:41;11.90;;;7.93;;
12687;SDS011;6408;59.388;17.798;2022-12-20T05:22:09;12.80;;;7.57;;
12687;SDS011;6408;59.388;17.798;2022-12-20T05:24:53;12.27;;;7.63;;
12687;SDS011;6408;59.388;17.798;2022-12-20T05:27:38;10.77;;;7.27;;
12687;SDS011;6408;59.388;17.798;2022-12-20T05:30:06;12.80;;;7.50;;
12687;SDS011;6408;59.388;17.798;2022-12-20T05:32:35;10.80;;;7.17;;
12687;SDS011;6408;59.388;17.798;2022-12-20T05:35:02;12.00;;;6.90;;
12687;SDS011;6408;59.388;17.798;2022-12-20T05:37:30;10.57;;;7.00;;
12687;SDS011;6408;59.388;17.798;2022-12-20T05:39:58;10.60;;;7.00;;
12687;SDS011;6408;59.388;17.798;2022-12-20T05:42:25;9.77;;;6.63;;
12687;SDS011;6408;59.388;17.798;2022-12-20T05:44:52;10.73;;;6.83;;
12687;SDS011;6408;59.388;17.798;2022-12-20T05:47:19;9.77;;;6.30;;
12687;SDS011;6408;59.388;17.798;2022-12-20T05:49:48;9.60;;;6.67;;
12687;SDS011;6408;59.388;17.798;2022-12-20T05:52:16;12.43;;;7.00;;
12687;SDS011;6408;59.388;17.798;2022-12-20T05:54:43;11.60;;;7.00;;
12687;SDS011;6408;59.388;17.798;2022-12-20T05:57:10;9.00;;;5.80;;
12687;SDS011;6408;59.388;17.798;2022-12-20T05:59:38;11.57;;;6.90;;
12687;SDS011;6408;59.388;17.798;2022-12-20T06:02:06;9.17;;;6.77;;
12687;SDS011;6408;59.388;17.798;2022-12-20T06:04:34;9.17;;;6.00;;
12687;SDS011;6408;59.388;17.798;2022-12-20T06:07:04;8.00;;;5.83;;
12687;SDS011;6408;59.388;17.798;2022-12-20T06:09:32;8.73;;;5.80;;
12687;SDS011;6408;59.388;17.798;2022-12-20T06:11:59;7.63;;;5.57;;
12687;SDS011;6408;59.388;17.798;2022-12-20T06:14:27;9.17;;;5.83;;
12687;SDS011;6408;59.388;17.798;2022-12-20T06:16:54;7.43;;;5.63;;
12687;SDS011;6408;59.388;17.798;2022-12-20T06:19:21;8.33;;;5.83;;
12687;SDS011;6408;59.388;17.798;2022-12-20T06:21:49;7.80;;;5.70;;
12687;SDS011;6408;59.388;17.798;2022-12-20T06:24:17;8.53;;;5.50;;
12687;SDS011;6408;59.388;17.798;2022-12-20T06:26:45;10.07;;;6.27;;
12687;SDS011;6408;59.388;17.798;2022-12-20T06:29:12;7.13;;;4.87;;
12687;SDS011;6408;59.388;17.798;2022-12-20T06:31:41;8.00;;;5.83;;
12687;SDS011;6408;59.388;17.798;2022-12-20T06:34:08;7.60;;;5.80;;
12687;SDS011;6408;59.388;17.798;2022-12-20T06:36:35;7.47;;;5.50;;
12687;SDS011;6408;59.388;17.798;2022-12-20T06:39:02;7.83;;;5.90;;
12687;SDS011;6408;59.388;17.798;2022-12-20T06:41:32;8.80;;;5.30;;
12687;SDS011;6408;59.388;17.798;2022-12-20T06:44:00;8.67;;;5.83;;
12687;SDS011;6408;59.388;17.798;2022-12-20T06:46:30;7.43;;;5.80;;
12687;SDS011;6408;59.388;17.798;2022-12-20T06:48:57;7.53;;;5.70;;
12687;SDS011;6408;59.388;17.798;2022-12-20T06:51:24;9.13;;;6.33;;
12687;SDS011;6408;59.388;17.798;2022-12-20T06:53:51;8.50;;;5.33;;
12687;SDS011;6408;59.388;17.798;2022-12-20T06:56:18;8.87;;;5.67;;
12687;SDS011;6408;59.388;17.798;2022-12-20T06:58:47;9.47;;;5.63;;
12687;SDS011;6408;59.388;17.798;2022-12-20T07:01:14;8.77;;;5.80;;
12687;SDS011;6408;59.388;17.798;2022-12-20T07:03:42;9.87;;;6.80;;
12687;SDS011;6408;59.388;17.798;2022-12-20T07:06:09;8.77;;;6.10;;
12687;SDS011;6408;59.388;17.798;2022-12-20T07:08:36;13.13;;;8.97;;
12687;SDS011;6408;59.388;17.798;2022-12-20T07:11:04;7.23;;;5.70;;
12687;SDS011;6408;59.388;17.798;2022-12-20T07:13:31;7.17;;;5.13;;
12687;SDS011;6408;59.388;17.798;2022-12-20T07:16:01;11.20;;;6.87;;
12687;SDS011;6408;59.388;17.798;2022-12-20T07:18:28;9.53;;;6.30;;
12687;SDS011;6408;59.388;17.798;2022-12-20T07:20:58;9.27;;;6.33;;
12687;SDS011;6408;59.388;17.798;2022-12-20T07:23:26;7.30;;;5.47;;
12687;SDS011;6408;59.388;17.798;2022-12-20T07:25:53;9.73;;;5.80;;
12687;SDS011;6408;59.388;17.798;2022-12-20T07:28:21;7.40;;;5.50;;
12687;SDS011;6408;59.388;17.798;2022-12-20T07:30:49;8.77;;;6.07;;
12687;SDS011;6408;59.388;17.798;2022-12-20T07:33:18;7.37;;;4.90;;
12687;SDS011;6408;59.388;17.798;2022-12-20T07:35:45;8.47;;;5.73;;
12687;SDS011;6408;59.388;17.798;2022-12-20T07:38:13;6.80;;;5.10;;
12687;SDS011;6408;59.388;17.798;2022-12-20T07:40:41;9.07;;;5.77;;
12687;SDS011;6408;59.388;17.798;2022-12-20T07:43:09;7.33;;;5.47;;
12687;SDS011;6408;59.388;17.798;2022-12-20T07:45:36;9.03;;;5.00;;
12687;SDS011;6408;59.388;17.798;2022-12-20T07:48:03;7.47;;;5.03;;
12687;SDS011;6408;59.388;17.798;2022-12-20T07:50:32;6.97;;;5.03;;
12687;SDS011;6408;59.388;17.798;2022-12-20T07:53:00;8.90;;;5.40;;
12687;SDS011;6408;59.388;17.798;2022-12-20T07:55:31;8.40;;;5.37;;
12687;SDS011;6408;59.388;17.798;2022-12-20T07:58:00;7.60;;;5.27;;
12687;SDS011;6408;59.388;17.798;2022-12-20T08:00:30;6.13;;;4.77;;
12687;SDS011;6408;59.388;17.798;2022-12-20T08:02:59;7.10;;;4.73;;
12687;SDS011;6408;59.388;17.798;2022-12-20T08:05:33;7.53;;;5.47;;
12687;SDS011;6408;59.388;17.798;2022-12-20T08:08:03;6.67;;;5.17;;
12687;SDS011;6408;59.388;17.798;2022-12-20T08:10:31;11.23;;;4.83;;
12687;SDS011;6408;59.388;17.798;2022-12-20T08:12:58;6.90;;;4.73;;
12687;SDS011;6408;59.388;17.798;2022-12-20T08:15:26;6.23;;;4.63;;
12687;SDS011;6408;59.388;17.798;2022-12-20T08:17:54;7.47;;;5.23;;
12687;SDS011;6408;59.388;17.798;2022-12-20T08:20:21;8.60;;;5.60;;
12687;SDS011;6408;59.388;17.798;2022-12-20T08:22:51;7.40;;;5.30;;
12687;SDS011;6408;59.388;17.798;2022-12-20T08:25:18;8.23;;;5.03;;
12687;SDS011;6408;59.388;17.798;2022-12-20T08:27:45;8.60;;;5.23;;
12687;SDS011;6408;59.388;17.798;2022-12-20T08:30:13;7.40;;;5.30;;
12687;SDS011;6408;59.388;17.798;2022-12-20T08:32:41;7.73;;;5.33;;
12687;SDS011;6408;59.388;17.798;2022-12-20T08:35:09;7.20;;;5.13;;
12687;SDS011;6408;59.388;17.798;2022-12-20T08:37:37;7.53;;;5.20;;
12687;SDS011;6408;59.388;17.798;2022-12-20T08:40:08;8.40;;;5.50;;
12687;SDS011;6408;59.388;17.798;2022-12-20T08:42:36;6.97;;;5.10;;
12687;SDS011;6408;59.388;17.798;2022-12-20T08:45:04;6.03;;;4.90;;
12687;SDS011;6408;59.388;17.798;2022-12-20T08:47:32;7.30;;;5.33;;
12687;SDS011;6408;59.388;17.798;2022-12-20T08:49:59;7.67;;;5.20;;
12687;SDS011;6408;59.388;17.798;2022-12-20T08:52:27;7.60;;;5.30;;
12687;SDS011;6408;59.388;17.798;2022-12-20T08:54:54;8.50;;;5.50;;
12687;SDS011;6408;59.388;17.798;2022-12-20T08:57:23;6.83;;;5.20;;
12687;SDS011;6408;59.388;17.798;2022-12-20T08:59:51;10.50;;;6.40;;
12687;SDS011;6408;59.388;17.798;2022-12-20T09:02:18;11.00;;;6.20;;
12687;SDS011;6408;59.388;17.798;2022-12-20T09:04:45;15.10;;;7.10;;
12687;SDS011;6408;59.388;17.798;2022-12-20T09:07:13;14.87;;;7.20;;
12687;SDS011;6408;59.388;17.798;2022-12-20T09:09:40;9.50;;;5.77;;
12687;SDS011;6408;59.388;17.798;2022-12-20T09:12:07;13.80;;;6.57;;
12687;SDS011;6408;59.388;17.798;2022-12-20T09:14:36;22.13;;;8.63;;
12687;SDS011;6408;59.388;17.798;2022-12-20T09:17:04;10.13;;;5.83;;
12687;SDS011;6408;59.388;17.798;2022-12-20T09:19:31;9.23;;;6.20;;
12687;SDS011;6408;59.388;17.798;2022-12-20T09:21:58;7.57;;;5.30;;
12687;SDS011;6408;59.388;17.798;2022-12-20T09:24:26;8.00;;;6.10;;
12687;SDS011;6408;59.388;17.798;2022-12-20T09:26:53;8.80;;;6.00;;
12687;SDS011;6408;59.388;17.798;2022-12-20T09:29:21;8.13;;;5.50;;
12687;SDS011;6408;59.388;17.798;2022-12-20T09:31:49;6.90;;;5.23;;
12687;SDS011;6408;59.388;17.798;2022-12-20T09:34:17;6.67;;;4.80;;
12687;SDS011;6408;59.388;17.798;2022-12-20T09:36:44;7.73;;;4.83;;
12687;SDS011;6408;59.388;17.798;2022-12-20T09:39:12;8.13;;;4.53;;
12687;SDS011;6408;59.388;17.798;2022-12-20T09:41:39;7.13;;;5.67;;
12687;SDS011;6408;59.388;17.798;2022-12-20T09:44:10;6.77;;;5.17;;
12687;SDS011;6408;59.388;17.798;2022-12-20T09:46:42;7.50;;;5.30;;
12687;SDS011;6408;59.388;17.798;2022-12-20T09:49:14;6.70;;;4.90;;
12687;SDS011;6408;59.388;17.798;2022-12-20T09:51:48;7.67;;;5.07;;
12687;SDS011;6408;59.388;17.798;2022-12-20T09:54:27;10.13;;;5.37;;
12687;SDS011;6408;59.388;17.798;2022-12-20T09:57:13;6.20;;;4.83;;
12687;SDS011;6408;59.388;17.798;2022-12-20T09:59:48;7.67;;;4.97;;
12687;SDS011;6408;59.388;17.798;2022-12-20T10:02:17;6.43;;;4.80;;
12687;SDS011;6408;59.388;17.798;2022-12-20T10:04:49;6.53;;;4.70;;
12687;SDS011;6408;59.388;17.798;2022-12-20T10:07:21;6.10;;;4.87;;
12687;SDS011;6408;59.388;17.798;2022-12-20T10:10:08;8.03;;;5.13;;
12687;SDS011;6408;59.388;17.798;2022-12-20T10:12:48;6.57;;;5.17;;
12687;SDS011;6408;59.388;17.798;2022-12-20T10:15:23;8.00;;;5.77;;
12687;SDS011;6408;59.388;17.798;2022-12-20T10:18:05;12.57;;;6.73;;
12687;SDS011;6408;59.388;17.798;2022-12-20T10:20:58;9.57;;;6.13;;
12687;SDS011;6408;59.388;17.798;2022-12-20T10:23:32;8.17;;;5.80;;
12687;SDS011;6408;59.388;17.798;2022-12-20T10:26:07;6.00;;;4.73;;
12687;SDS011;6408;59.388;17.798;2022-12-20T10:28:35;6.90;;;5.03;;
12687;SDS011;6408;59.388;17.798;2022-12-20T10:31:05;5.77;;;4.90;;
12687;SDS011;6408;59.388;17.798;2022-12-20T10:33:37;8.20;;;4.63;;
12687;SDS011;6408;59.388;17.798;2022-12-20T10:36:19;5.73;;;4.33;;
12687;SDS011;6408;59.388;17.798;2022-12-20T10:38:50;6.83;;;4.63;;
12687;SDS011;6408;59.388;17.798;2022-12-20T10:41:20;5.67;;;4.40;;
12687;SDS011;6408;59.388;17.798;2022-12-20T10:43:50;6.80;;;4.90;;
12687;SDS011;6408;59.388;17.798;2022-12-20T10:46:21;9.53;;;4.97;;
12687;SDS011;6408;59.388;17.798;2022-12-20T10:49:03;6.83;;;4.97;;
12687;SDS011;6408;59.388;17.798;2022-12-20T10:51:54;7.47;;;4.67;;
12687;SDS011;6408;59.388;17.798;2022-12-20T10:54:23;7.43;;;4.67;;
12687;SDS011;6408;59.388;17.798;2022-12-20T10:56:54;5.73;;;4.10;;
12687;SDS011;6408;59.388;17.798;2022-12-20T10:59:27;6.20;;;4.83;;
12687;SDS011;6408;59.388;17.798;2022-12-20T11:01:57;5.30;;;4.60;;
12687;SDS011;6408;59.388;17.798;2022-12-20T11:04:26;8.20;;;4.63;;
12687;SDS011;6408;59.388;17.798;2022-12-20T11:06:57;6.87;;;4.80;;
12687;SDS011;6408;59.388;17.798;2022-12-20T11:09:26;5.90;;;4.40;;
12687;SDS011;6408;59.388;17.798;2022-12-20T11:11:57;4.70;;;4.20;;
12687;SDS011;6408;59.388;17.798;2022-12-20T11:14:25;5.03;;;3.90;;
12687;SDS011;6408;59.388;17.798;2022-12-20T11:16:53;6.00;;;4.73;;
12687;SDS011;6408;59.388;17.798;2022-12-20T11:22:24;5.13;;;4.10;;
12687;SDS011;6408;59.388;17.798;2022-12-20T11:25:02;6.37;;;4.50;;
12687;SDS011;6408;59.388;17.798;2022-12-20T11:27:43;6.13;;;4.33;;
12687;SDS011;6408;59.388;17.798;2022-12-20T11:30:19;5.87;;;4.13;;
12687;SDS011;6408;59.388;17.798;2022-12-20T11:33:10;5.57;;;4.33;;
12687;SDS011;6408;59.388;17.798;2022-12-20T11:35:50;5.30;;;4.10;;
12687;SDS011;6408;59.388;17.798;2022-12-20T11:38:29;6.77;;;4.43;;
12687;SDS011;6408;59.388;17.798;2022-12-20T11:41:10;5.07;;;3.97;;
12687;SDS011;6408;59.388;17.798;2022-12-20T11:46:45;5.27;;;4.27;;
12687;SDS011;6408;59.388;17.798;2022-12-20T11:49:35;5.73;;;3.73;;
12687;SDS011;6408;59.388;17.798;2022-12-20T11:52:16;4.30;;;3.87;;
12687;SDS011;6408;59.388;17.798;2022-12-20T11:54:57;5.23;;;3.60;;
12687;SDS011;6408;59.388;17.798;2022-12-20T11:57:31;4.93;;;3.67;;
12687;SDS011;6408;59.388;17.798;2022-12-20T12:00:06;4.80;;;3.37;;
12687;SDS011;6408;59.388;17.798;2022-12-20T12:02:41;5.10;;;3.67;;
12687;SDS011;6408;59.388;17.798;2022-12-20T12:05:14;3.83;;;3.27;;
12687;SDS011;6408;59.388;17.798;2022-12-20T12:07:46;4.23;;;3.53;;
12687;SDS011;6408;59.388;17.798;2022-12-20T12:10:22;4.47;;;3.53;;
12687;SDS011;6408;59.388;17.798;2022-12-20T12:12:52;4.30;;;3.20;;
12687;SDS011;6408;59.388;17.798;2022-12-20T12:15:26;3.63;;;3.30;;
12687;SDS011;6408;59.388;17.798;2022-12-20T12:17:58;5.17;;;3.67;;
12687;SDS011;6408;59.388;17.798;2022-12-20T12:20:31;4.13;;;3.30;;
12687;SDS011;6408;59.388;17.798;2022-12-20T12:23:04;4.60;;;3.80;;
12687;SDS011;6408;59.388;17.798;2022-12-20T12:25:40;5.30;;;4.30;;
12687;SDS011;6408;59.388;17.798;2022-12-20T12:28:08;4.93;;;3.67;;
12687;SDS011;6408;59.388;17.798;2022-12-20T12:30:40;4.67;;;4.00;;
12687;SDS011;6408;59.388;17.798;2022-12-20T12:33:12;3.87;;;3.33;;
12687;SDS011;6408;59.388;17.798;2022-12-20T12:35:47;4.63;;;3.63;;
12687;SDS011;6408;59.388;17.798;2022-12-20T12:38:42;3.83;;;3.43;;
12687;SDS011;6408;59.388;17.798;2022-12-20T12:44:29;4.33;;;3.77;;
12687;SDS011;6408;59.388;17.798;2022-12-20T12:47:02;3.50;;;3.20;;
12687;SDS011;6408;59.388;17.798;2022-12-20T12:49:36;4.40;;;3.40;;
12687;SDS011;6408;59.388;17.798;2022-12-20T12:52:06;4.23;;;3.47;;
12687;SDS011;6408;59.388;17.798;2022-12-20T12:55:00;3.13;;;2.80;;
12687;SDS011;6408;59.388;17.798;2022-12-20T12:57:30;3.97;;;3.40;;
12687;SDS011;6408;59.388;17.798;2022-12-20T13:03:15;5.30;;;3.27;;
12687;SDS011;6408;59.388;17.798;2022-12-20T13:09:09;5.67;;;3.37;;
12687;SDS011;6408;59.388;17.798;2022-12-20T13:11:45;5.60;;;3.80;;
12687;SDS011;6408;59.388;17.798;2022-12-20T13:20:17;3.73;;;3.13;;
12687;SDS011;6408;59.388;17.798;2022-12-20T13:23:08;3.73;;;3.37;;
12687;SDS011;6408;59.388;17.798;2022-12-20T13:25:42;4.20;;;3.80;;
12687;SDS011;6408;59.388;17.798;2022-12-20T13:31:30;5.80;;;3.33;;
12687;SDS011;6408;59.388;17.798;2022-12-20T13:34:01;4.73;;;3.63;;
12687;SDS011;6408;59.388;17.798;2022-12-20T13:36:29;4.43;;;3.03;;
12687;SDS011;6408;59.388;17.798;2022-12-20T13:38:59;5.27;;;3.57;;
12687;SDS011;6408;59.388;17.798;2022-12-20T13:41:33;5.17;;;3.40;;
12687;SDS011;6408;59.388;17.798;2022-12-20T13:47:00;5.13;;;3.47;;
12687;SDS011;6408;59.388;17.798;2022-12-20T13:49:39;5.47;;;4.07;;
12687;SDS011;6408;59.388;17.798;2022-12-20T13:52:13;7.97;;;4.30;;
12687;SDS011;6408;59.388;17.798;2022-12-20T13:54:52;5.27;;;3.10;;
12687;SDS011;6408;59.388;17.798;2022-12-20T13:57:24;5.77;;;3.70;;
12687;SDS011;6408;59.388;17.798;2022-12-20T13:59:55;6.63;;;3.73;;
12687;SDS011;6408;59.388;17.798;2022-12-20T14:02:26;5.80;;;3.47;;
12687;SDS011;6408;59.388;17.798;2022-12-20T14:04:59;4.87;;;3.43;;
12687;SDS011;6408;59.388;17.798;2022-12-20T14:07:29;4.83;;;3.03;;
12687;SDS011;6408;59.388;17.798;2022-12-20T14:09:58;4.63;;;3.40;;
12687;SDS011;6408;59.388;17.798;2022-12-20T14:12:27;4.80;;;3.20;;
12687;SDS011;6408;59.388;17.798;2022-12-20T14:14:55;3.30;;;3.00;;
12687;SDS011;6408;59.388;17.798;2022-12-20T14:17:24;5.03;;;3.60;;
12687;SDS011;6408;59.388;17.798;2022-12-20T14:20:12;4.10;;;3.40;;
12687;SDS011;6408;59.388;17.798;2022-12-20T14:22:44;4.60;;;3.50;;
12687;SDS011;6408;59.388;17.798;2022-12-20T14:25:18;4.80;;;3.30;;
12687;SDS011;6408;59.388;17.798;2022-12-20T14:27:53;4.73;;;3.20;;
12687;SDS011;6408;59.388;17.798;2022-12-20T14:30:28;4.20;;;3.33;;
12687;SDS011;6408;59.388;17.798;2022-12-20T14:32:57;5.20;;;3.50;;
12687;SDS011;6408;59.388;17.798;2022-12-20T14:35:26;6.83;;;4.30;;
12687;SDS011;6408;59.388;17.798;2022-12-20T14:37:55;5.03;;;3.50;;
12687;SDS011;6408;59.388;17.798;2022-12-20T14:40:24;4.40;;;3.47;;
12687;SDS011;6408;59.388;17.798;2022-12-20T14:42:54;4.53;;;3.27;;
12687;SDS011;6408;59.388;17.798;2022-12-20T14:45:23;4.80;;;3.50;;
12687;SDS011;6408;59.388;17.798;2022-12-20T14:47:57;4.93;;;3.97;;
12687;SDS011;6408;59.388;17.798;2022-12-20T14:50:30;5.47;;;3.53;;
12687;SDS011;6408;59.388;17.798;2022-12-20T14:52:58;5.30;;;3.80;;
12687;SDS011;6408;59.388;17.798;2022-12-20T14:55:29;8.00;;;3.90;;
12687;SDS011;6408;59.388;17.798;2022-12-20T14:58:00;6.40;;;4.23;;
12687;SDS011;6408;59.388;17.798;2022-12-20T15:00:32;6.90;;;4.23;;
12687;SDS011;6408;59.388;17.798;2022-12-20T15:03:01;7.00;;;4.67;;
12687;SDS011;6408;59.388;17.798;2022-12-20T15:05:48;7.13;;;4.73;;
12687;SDS011;6408;59.388;17.798;2022-12-20T15:08:17;8.57;;;5.40;;
12687;SDS011;6408;59.388;17.798;2022-12-20T15:10:48;8.87;;;5.30;;
12687;SDS011;6408;59.388;17.798;2022-12-20T15:13:19;13.63;;;5.77;;
12687;SDS011;6408;59.388;17.798;2022-12-20T15:15:48;7.93;;;4.90;;
12687;SDS011;6408;59.388;17.798;2022-12-20T15:18:15;14.80;;;5.13;;
12687;SDS011;6408;59.388;17.798;2022-12-20T15:20:45;12.30;;;5.50;;
12687;SDS011;6408;59.388;17.798;2022-12-20T15:23:16;77.97;;;9.50;;
12687;SDS011;6408;59.388;17.798;2022-12-20T15:25:45;18.50;;;5.83;;